createdAt,value
2018-04-11T00:00:06.842Z,18.9
2018-04-11T00:00:56.611Z,18.9
2018-04-11T00:01:46.981Z,18.9
2018-04-11T00:02:36.303Z,18.9
2018-04-11T00:03:26.808Z,18.9
2018-04-11T00:04:17.440Z,18.9
2018-04-11T00:05:07.748Z,18.9
2018-04-11T00:05:57.576Z,18.9
2018-04-11T00:06:47.339Z,18.9
2018-04-11T00:07:37.703Z,18.9
2018-04-11T00:08:27.482Z,18.9
2018-04-11T00:09:17.241Z,18.9
2018-04-11T00:10:08.198Z,18.9
2018-04-11T00:10:58.219Z,18.9
2018-04-11T00:11:48.271Z,18.9
2018-04-11T00:12:37.508Z,18.9
2018-04-11T00:13:28.429Z,18.9
2018-04-11T00:14:17.931Z,18.9
2018-04-11T00:15:07.950Z,18.9
2018-04-11T00:15:57.755Z,18.9
2018-04-11T00:16:47.825Z,18.9
2018-04-11T00:17:38.176Z,18.9
2018-04-11T00:18:28.529Z,18.9
2018-04-11T00:19:18.926Z,18.9
2018-04-11T00:20:08.646Z,18.9
2018-04-11T00:20:58.979Z,18.9
2018-04-11T00:21:48.177Z,18.9
2018-04-11T00:22:38.011Z,18.9
2018-04-11T00:23:29.224Z,18.9
2018-04-11T00:24:19.187Z,18.9
2018-04-11T00:25:09.263Z,18.9
2018-04-11T00:25:59.050Z,18.9
2018-04-11T00:26:48.833Z,18.9
2018-04-11T00:27:39.233Z,18.9
2018-04-11T00:28:29.532Z,18.9
2018-04-11T00:29:19.314Z,18.9
2018-04-11T00:30:09.450Z,18.9
2018-04-11T00:30:59.172Z,18.9
2018-04-11T00:31:49.789Z,18.9
2018-04-11T00:32:39.263Z,18.9
2018-04-11T00:33:29.316Z,18.9
2018-04-11T00:34:19.944Z,18.9
2018-04-11T00:35:09.467Z,18.9
2018-04-11T00:35:59.804Z,18.9
2018-04-11T00:36:50.168Z,18.9
2018-04-11T00:37:40.198Z,18.9
2018-04-11T00:38:30.025Z,18.9
2018-04-11T00:39:19.971Z,18.9
2018-04-11T00:40:10.412Z,18.9
2018-04-11T00:41:00.162Z,18.9
2018-04-11T00:41:50.547Z,18.9
2018-04-11T00:42:40.557Z,18.9
2018-04-11T00:43:30.090Z,18.9
2018-04-11T00:44:20.455Z,18.9
2018-04-11T00:45:10.480Z,18.9
2018-04-11T00:46:00.287Z,18.9
2018-04-11T00:46:49.485Z,18.9
2018-04-11T00:47:40.701Z,18.9
2018-04-11T00:48:30.437Z,18.9
2018-04-11T00:49:20.503Z,18.9
2018-04-11T00:50:11.177Z,18.9
2018-04-11T00:51:01.183Z,18.9
2018-04-11T00:51:51.001Z,18.9
2018-04-11T00:52:41.067Z,18.9
2018-04-11T00:53:30.592Z,18.9
2018-04-11T00:54:21.447Z,18.9
2018-04-11T00:55:11.247Z,18.9
2018-04-11T00:56:01.573Z,18.9
2018-04-11T00:56:51.609Z,18.9
2018-04-11T00:57:41.428Z,18.9
2018-04-11T00:58:31.772Z,18.9
2018-04-11T00:59:21.828Z,18.9
2018-04-11T01:00:11.595Z,18.9
2018-04-11T01:01:01.683Z,18.9
2018-04-11T01:01:50.608Z,19
2018-04-11T01:02:40.970Z,18.9
2018-04-11T01:03:31.002Z,18.9
2018-04-11T01:04:21.693Z,18.9
2018-04-11T01:05:11.997Z,18.9
2018-04-11T01:06:01.769Z,18.9
2018-04-11T01:06:51.841Z,18.9
2018-04-11T01:07:42.440Z,18.9
2018-04-11T01:08:32.248Z,18.9
2018-04-11T01:09:22.021Z,18.9
2018-04-11T01:10:12.635Z,18.9
2018-04-11T01:11:02.460Z,18.9
2018-04-11T01:11:52.553Z,19
2018-04-11T01:12:42.585Z,18.9
2018-04-11T01:13:32.960Z,18.9
2018-04-11T01:14:22.420Z,18.9
2018-04-11T01:15:13.092Z,19
2018-04-11T01:16:02.870Z,18.9
2018-04-11T01:16:53.198Z,19
2018-04-11T01:17:43.260Z,19
2018-04-11T01:18:33.301Z,18.9
2018-04-11T01:19:22.808Z,19
2018-04-11T01:20:13.422Z,19
2018-04-11T01:21:03.239Z,18.9
2018-04-11T01:21:53.573Z,18.9
2018-04-11T01:22:43.365Z,19
2018-04-11T01:23:33.476Z,19
2018-04-11T01:24:23.479Z,19
2018-04-11T01:25:12.702Z,19
2018-04-11T01:26:03.906Z,19
2018-04-11T01:26:53.969Z,19
2018-04-11T01:27:44.018Z,19
2018-04-11T01:28:33.784Z,19
2018-04-11T01:29:23.559Z,19
2018-04-11T01:30:13.085Z,19
2018-04-11T01:31:03.761Z,19
2018-04-11T01:31:53.224Z,19
2018-04-11T01:32:43.813Z,19
2018-04-11T01:33:33.591Z,19
2018-04-11T01:34:23.954Z,19
2018-04-11T01:35:14.304Z,19
2018-04-11T01:36:04.349Z,19
2018-04-11T01:36:54.169Z,19
2018-04-11T01:37:44.751Z,19
2018-04-11T01:38:34.250Z,19
2018-04-11T01:39:24.605Z,19
2018-04-11T01:40:14.941Z,19
2018-04-11T01:41:04.203Z,19
2018-04-11T01:41:54.812Z,19
2018-04-11T01:42:44.854Z,19
2018-04-11T01:43:34.947Z,19
2018-04-11T01:44:24.752Z,19
2018-04-11T01:45:15.016Z,19
2018-04-11T01:46:05.386Z,19
2018-04-11T01:46:54.898Z,19
2018-04-11T01:47:44.668Z,19
2018-04-11T01:48:35.623Z,19
2018-04-11T01:49:25.625Z,19
2018-04-11T01:50:15.704Z,19
2018-04-11T01:51:05.513Z,19
2018-04-11T01:51:55.536Z,19
2018-04-11T01:52:45.056Z,19
2018-04-11T01:53:35.681Z,19
2018-04-11T01:54:25.768Z,19
2018-04-11T01:55:15.283Z,19
2018-04-11T01:56:05.851Z,19
2018-04-11T01:56:55.620Z,19
2018-04-11T01:57:45.725Z,19
2018-04-11T01:58:36.362Z,19
2018-04-11T01:59:26.416Z,19
2018-04-11T02:00:16.446Z,19.1
2018-04-11T02:01:06.236Z,19
2018-04-11T02:01:55.463Z,19.1
2018-04-11T02:02:45.844Z,19.1
2018-04-11T02:03:36.439Z,19
2018-04-11T02:04:26.520Z,19
2018-04-11T02:05:16.554Z,19
2018-04-11T02:06:06.315Z,19.1
2018-04-11T02:06:56.947Z,19
2018-04-11T02:07:46.729Z,19
2018-04-11T02:08:37.185Z,19.1
2018-04-11T02:09:26.864Z,19.1
2018-04-11T02:10:16.927Z,19.1
2018-04-11T02:11:07.075Z,19.1
2018-04-11T02:11:56.499Z,19.1
2018-04-11T02:12:46.858Z,19.1
2018-04-11T02:13:36.632Z,19.1
2018-04-11T02:14:26.967Z,19.1
2018-04-11T02:15:16.996Z,19.1
2018-04-11T02:16:07.098Z,19
2018-04-11T02:16:57.715Z,19.1
2018-04-11T02:17:47.537Z,19.1
2018-04-11T02:18:37.227Z,19.1
2018-04-11T02:19:27.980Z,19.1
2018-04-11T02:20:17.747Z,19.1
2018-04-11T02:21:07.452Z,19.1
2018-04-11T02:21:58.067Z,19.1
2018-04-11T02:22:47.611Z,19.1
2018-04-11T02:23:38.184Z,19.1
2018-04-11T02:24:28.258Z,19.1
2018-04-11T02:25:17.776Z,19.1
2018-04-11T02:26:08.143Z,19.1
2018-04-11T02:26:58.185Z,19.1
2018-04-11T02:27:47.401Z,19.1
2018-04-11T02:28:38.016Z,19.1
2018-04-11T02:29:28.668Z,19.1
2018-04-11T02:30:18.420Z,19.1
2018-04-11T02:31:08.471Z,19.1
2018-04-11T02:31:58.496Z,19.1
2018-04-11T02:32:48.629Z,19.1
2018-04-11T02:33:38.689Z,19.1
2018-04-11T02:34:28.795Z,19.1
2018-04-11T02:35:18.538Z,19.1
2018-04-11T02:36:09.189Z,19.1
2018-04-11T02:36:59.250Z,19.1
2018-04-11T02:37:48.452Z,19.1
2018-04-11T02:38:38.839Z,19.1
2018-04-11T02:39:29.125Z,19.1
2018-04-11T02:40:19.462Z,19.1
2018-04-11T02:41:09.562Z,19.1
2018-04-11T02:41:59.334Z,19.1
2018-04-11T02:42:49.100Z,19.1
2018-04-11T02:43:39.698Z,19.1
2018-04-11T02:44:29.249Z,19.1
2018-04-11T02:45:19.262Z,19.1
2018-04-11T02:46:09.041Z,19.1
2018-04-11T02:46:59.408Z,19.1
2018-04-11T02:47:49.478Z,19.1
2018-04-11T02:48:38.916Z,19.1
2018-04-11T02:49:29.583Z,19.1
2018-04-11T02:50:19.925Z,19.1
2018-04-11T02:51:10.315Z,19.1
2018-04-11T02:52:00.055Z,19.1
2018-04-11T02:52:49.868Z,19.1
2018-04-11T02:53:39.368Z,19.1
2018-04-11T02:54:30.007Z,19.1
2018-04-11T02:55:20.030Z,19.1
2018-04-11T02:56:10.122Z,19.1
2018-04-11T02:57:00.437Z,19.1
2018-04-11T02:57:50.489Z,19.2
2018-04-11T02:58:40.842Z,19.1
2018-04-11T02:59:30.869Z,19.2
2018-04-11T03:00:20.401Z,19.2
2018-04-11T03:01:10.739Z,19.2
2018-04-11T03:02:00.797Z,19.2
2018-04-11T03:02:51.124Z,19.2
2018-04-11T03:03:40.934Z,19.2
2018-04-11T03:04:30.419Z,19.3
2018-04-11T03:05:20.743Z,19.3
2018-04-11T03:06:11.190Z,19.3
2018-04-11T03:07:00.623Z,19.3
2018-04-11T03:07:51.237Z,19.3
2018-04-11T03:08:41.590Z,19.3
2018-04-11T03:09:31.912Z,19.3
2018-04-11T03:10:21.712Z,19.3
2018-04-11T03:11:11.784Z,19.3
2018-04-11T03:12:01.562Z,19.3
2018-04-11T03:12:51.612Z,19.3
2018-04-11T03:13:41.682Z,19.4
2018-04-11T03:14:31.449Z,19.4
2018-04-11T03:15:22.094Z,19.4
2018-04-11T03:16:12.136Z,19.4
2018-04-11T03:17:01.352Z,19.4
2018-04-11T03:17:51.979Z,19.4
2018-04-11T03:18:41.772Z,19.4
2018-04-11T03:19:31.807Z,19.4
2018-04-11T03:20:21.141Z,19.4
2018-04-11T03:21:12.231Z,19.4
2018-04-11T03:22:02.067Z,19.4
2018-04-11T03:22:51.324Z,19.4
2018-04-11T03:23:42.420Z,19.4
2018-04-11T03:24:32.033Z,19.4
2018-04-11T03:25:22.947Z,19.4
2018-04-11T03:26:12.607Z,19.4
2018-04-11T03:27:02.973Z,19.4
2018-04-11T03:27:52.731Z,19.4
2018-04-11T03:28:42.761Z,19.4
2018-04-11T03:29:32.849Z,19.4
2018-04-11T03:30:22.684Z,19.4
2018-04-11T03:31:12.427Z,19.4
2018-04-11T03:32:03.297Z,19.4
2018-04-11T03:32:53.386Z,19.4
2018-04-11T03:33:43.471Z,19.4
2018-04-11T03:34:33.231Z,19.4
2018-04-11T03:35:23.269Z,19.4
2018-04-11T03:36:13.055Z,19.4
2018-04-11T03:37:02.591Z,19.4
2018-04-11T03:37:53.749Z,19.4
2018-04-11T03:38:42.692Z,19.4
2018-04-11T03:39:33.873Z,19.4
2018-04-11T03:40:23.427Z,19.4
2018-04-11T03:41:12.893Z,19.4
2018-04-11T03:42:03.935Z,19.4
2018-04-11T03:42:52.996Z,19.4
2018-04-11T03:43:43.634Z,19.4
2018-04-11T03:44:34.259Z,19.4
2018-04-11T03:45:23.827Z,19.4
2018-04-11T03:46:13.516Z,19.4
2018-04-11T03:47:03.921Z,19.4
2018-04-11T03:47:53.972Z,19.4
2018-04-11T03:48:43.488Z,19.4
2018-04-11T03:49:33.880Z,19.4
2018-04-11T03:50:23.532Z,19.4
2018-04-11T03:51:14.525Z,19.4
2018-04-11T03:52:04.007Z,19.4
2018-04-11T03:52:53.818Z,19.4
2018-04-11T03:53:44.370Z,19.4
2018-04-11T03:54:34.728Z,19.4
2018-04-11T03:55:24.524Z,19.4
2018-04-11T03:56:15.148Z,19.4
2018-04-11T03:57:04.626Z,19.4
2018-04-11T03:57:54.976Z,19.4
2018-04-11T03:58:44.470Z,19.4
2018-04-11T03:59:35.110Z,19.4
2018-04-11T04:00:25.191Z,19.4
2018-04-11T04:01:14.673Z,19.4
2018-04-11T04:02:05.036Z,19.4
2018-04-11T04:02:55.096Z,19.4
2018-04-11T04:03:45.691Z,19.4
2018-04-11T04:04:35.476Z,19.4
2018-04-11T04:05:25.545Z,19.4
2018-04-11T04:06:15.620Z,19.4
2018-04-11T04:07:05.672Z,19.4
2018-04-11T04:07:55.464Z,19.4
2018-04-11T04:08:45.784Z,19.4
2018-04-11T04:09:35.577Z,19.4
2018-04-11T04:10:26.199Z,19.4
2018-04-11T04:11:15.747Z,19.4
2018-04-11T04:12:05.792Z,19.4
2018-04-11T04:12:56.142Z,19.4
2018-04-11T04:13:46.762Z,19.4
2018-04-11T04:14:35.929Z,19.4
2018-04-11T04:15:26.262Z,19.4
2018-04-11T04:16:16.334Z,19.4
2018-04-11T04:17:05.948Z,19.4
2018-04-11T04:17:56.241Z,19.4
2018-04-11T04:18:46.536Z,19.4
2018-04-11T04:19:36.572Z,19.4
2018-04-11T04:20:26.635Z,19.4
2018-04-11T04:21:16.987Z,19.4
2018-04-11T04:22:06.789Z,19.4
2018-04-11T04:22:57.122Z,19.4
2018-04-11T04:23:46.890Z,19.4
2018-04-11T04:24:37.238Z,19.4
2018-04-11T04:25:26.740Z,19.4
2018-04-11T04:26:16.819Z,19.4
2018-04-11T04:27:07.434Z,19.4
2018-04-11T04:27:57.227Z,19.4
2018-04-11T04:28:47.279Z,19.4
2018-04-11T04:29:37.341Z,19.4
2018-04-11T04:30:27.829Z,19.4
2018-04-11T04:31:17.774Z,19.4
2018-04-11T04:32:07.834Z,19.4
2018-04-11T04:32:57.575Z,19.4
2018-04-11T04:33:47.931Z,19.4
2018-04-11T04:34:37.703Z,19.4
2018-04-11T04:35:27.751Z,19.4
2018-04-11T04:36:17.559Z,19.4
2018-04-11T04:37:07.359Z,19.4
2018-04-11T04:37:57.950Z,19.4
2018-04-11T04:38:47.481Z,19.4
2018-04-11T04:39:38.366Z,19.4
2018-04-11T04:40:28.135Z,19.4
2018-04-11T04:41:18.510Z,19.4
2018-04-11T04:42:08.621Z,19.4
2018-04-11T04:42:57.771Z,19.4
2018-04-11T04:43:48.407Z,19.4
2018-04-11T04:44:38.740Z,19.4
2018-04-11T04:45:28.787Z,19.4
2018-04-11T04:46:18.568Z,19.4
2018-04-11T04:47:08.657Z,19.4
2018-04-11T04:47:58.705Z,19.4
2018-04-11T04:48:49.120Z,19.4
2018-04-11T04:49:38.853Z,19.4
2018-04-11T04:50:28.933Z,19.5
2018-04-11T04:51:19.211Z,19.4
2018-04-11T04:52:08.769Z,19.5
2018-04-11T04:52:59.387Z,19.5
2018-04-11T04:53:48.867Z,19.5
2018-04-11T04:54:38.907Z,19.5
2018-04-11T04:55:29.567Z,19.5
2018-04-11T04:56:19.332Z,19.5
2018-04-11T04:57:09.400Z,19.4
2018-04-11T04:57:59.175Z,19.5
2018-04-11T04:58:49.794Z,19.5
2018-04-11T04:59:39.826Z,19.5
2018-04-11T05:00:29.072Z,19.5
2018-04-11T05:01:18.942Z,19.5
2018-04-11T05:02:09.305Z,19.5
2018-04-11T05:02:59.061Z,19.5
2018-04-11T05:03:48.764Z,19.5
2018-04-11T05:04:39.649Z,19.5
2018-04-11T05:05:29.763Z,19.6
2018-04-11T05:06:19.506Z,19.5
2018-04-11T05:07:10.124Z,19.6
2018-04-11T05:07:59.687Z,19.6
2018-04-11T05:08:49.977Z,19.6
2018-04-11T05:09:40.366Z,19.6
2018-04-11T05:10:30.082Z,19.6
2018-04-11T05:11:20.436Z,19.6
2018-04-11T05:12:10.521Z,19.6
2018-04-11T05:13:00.556Z,19.6
2018-04-11T05:13:50.353Z,19.6
2018-04-11T05:14:40.697Z,19.6
2018-04-11T05:15:31.043Z,19.6
2018-04-11T05:16:21.093Z,19.6
2018-04-11T05:17:10.885Z,19.6
2018-04-11T05:18:00.698Z,19.6
2018-04-11T05:18:50.700Z,19.6
2018-04-11T05:19:41.335Z,19.6
2018-04-11T05:20:31.393Z,19.6
2018-04-11T05:21:21.169Z,19.6
2018-04-11T05:22:11.519Z,19.6
2018-04-11T05:23:01.323Z,19.6
2018-04-11T05:23:51.625Z,19.6
2018-04-11T05:24:41.149Z,19.6
2018-04-11T05:25:31.821Z,19.6
2018-04-11T05:26:21.815Z,19.6
2018-04-11T05:27:11.965Z,19.6
2018-04-11T05:28:01.647Z,19.6
2018-04-11T05:28:51.453Z,19.6
2018-04-11T05:29:41.784Z,19.6
2018-04-11T05:30:31.897Z,19.6
2018-04-11T05:31:22.272Z,19.6
2018-04-11T05:32:11.433Z,19.6
2018-04-11T05:33:02.125Z,19.6
2018-04-11T05:34:17.865Z,19.6
2018-04-11T05:35:08.822Z,19.6
2018-04-11T05:35:58.873Z,19.6
2018-04-11T05:36:48.911Z,19.6
2018-04-11T05:37:38.686Z,19.6
2018-04-11T05:38:28.775Z,19.6
2018-04-11T05:39:18.731Z,19.6
2018-04-11T05:40:08.770Z,19.6
2018-04-11T05:40:59.240Z,19.6
2018-04-11T05:41:48.710Z,19.6
2018-04-11T05:42:39.349Z,19.6
2018-04-11T05:43:28.857Z,19.6
2018-04-11T05:44:18.613Z,19.6
2018-04-11T05:45:09.533Z,19.6
2018-04-11T05:45:59.012Z,19.6
2018-04-11T05:46:49.057Z,19.6
2018-04-11T05:47:38.871Z,19.6
2018-04-11T05:48:29.194Z,19.6
2018-04-11T05:49:18.509Z,19.6
2018-04-11T05:50:09.068Z,19.6
2018-04-11T05:50:58.513Z,19.6
2018-04-11T05:51:49.184Z,19.6
2018-04-11T05:52:39.258Z,19.6
2018-04-11T05:53:29.415Z,19.7
2018-04-11T05:54:19.623Z,19.7
2018-04-11T05:55:08.961Z,19.7
2018-04-11T05:55:59.485Z,19.7
2018-04-11T05:56:48.364Z,19.7
2018-04-11T05:57:39.143Z,19.7
2018-04-11T05:58:29.856Z,19.7
2018-04-11T05:59:19.724Z,19.7
2018-04-11T06:00:09.866Z,19.7
2018-04-11T06:01:00.743Z,19.7
2018-04-11T06:01:49.913Z,19.7
2018-04-11T06:02:40.540Z,19.4
2018-04-11T06:03:30.065Z,21.4
2018-04-11T06:04:19.592Z,23.1
2018-04-11T06:05:10.532Z,25.6
2018-04-11T06:06:00.990Z,26.3
2018-04-11T06:06:50.562Z,25.4
2018-04-11T06:07:41.197Z,24.5
2018-04-11T06:08:30.850Z,24.3
2018-04-11T06:09:21.034Z,24.6
2018-04-11T06:10:11.368Z,25.1
2018-04-11T06:11:01.145Z,25.6
2018-04-11T06:11:51.062Z,26
2018-04-11T06:12:41.556Z,26.1
2018-04-11T06:13:31.331Z,26
2018-04-11T06:14:20.964Z,25.9
2018-04-11T06:15:11.199Z,25.9
2018-04-11T06:16:01.234Z,26.1
2018-04-11T06:16:51.940Z,26.3
2018-04-11T06:17:41.377Z,26.4
2018-04-11T06:18:31.717Z,26.4
2018-04-11T06:19:22.049Z,26.4
2018-04-11T06:20:10.998Z,26.4
2018-04-11T06:21:01.876Z,26.6
2018-04-11T06:21:51.984Z,26.7
2018-04-11T06:22:42.092Z,26.9
2018-04-11T06:23:32.344Z,27.1
2018-04-11T06:24:22.142Z,27.3
2018-04-11T06:25:12.213Z,27.5
2018-04-11T06:26:01.983Z,27.7
2018-04-11T06:27:42.698Z,28
2018-04-11T06:28:32.523Z,28.1
2018-04-11T06:29:22.228Z,28.1
2018-04-11T06:30:12.866Z,28.2
2018-04-11T06:31:02.937Z,28.3
2018-04-11T06:31:53.005Z,28.4
2018-04-11T06:32:42.777Z,28.6
2018-04-11T06:33:33.117Z,28.8
2018-04-11T06:34:23.015Z,29
2018-04-11T06:35:13.480Z,29.3
2018-04-11T06:36:03.023Z,29.6
2018-04-11T06:36:52.815Z,29.7
2018-04-11T06:37:43.147Z,29.7
2018-04-11T06:38:33.517Z,29.6
2018-04-11T06:39:23.292Z,29.4
2018-04-11T06:40:13.045Z,29.3
2018-04-11T06:41:03.722Z,29.3
2018-04-11T06:41:53.200Z,29.3
2018-04-11T06:42:43.505Z,29.4
2018-04-11T06:43:33.344Z,29.4
2018-04-11T06:44:23.387Z,29.5
2018-04-11T06:45:14.065Z,29.5
2018-04-11T06:46:03.747Z,29.6
2018-04-11T06:46:54.152Z,29.6
2018-04-11T06:47:43.635Z,29.6
2018-04-11T06:48:33.979Z,29.6
2018-04-11T06:49:24.030Z,29.7
2018-04-11T06:50:14.361Z,29.7
2018-04-11T06:51:04.124Z,29.8
2018-04-11T06:51:54.234Z,29.9
2018-04-11T06:52:44.572Z,30.2
2018-04-11T06:53:33.511Z,30.5
2018-04-11T06:54:24.411Z,30.9
2018-04-11T06:55:14.544Z,31.2
2018-04-11T06:56:03.960Z,31.3
2018-04-11T06:56:54.658Z,31.3
2018-04-11T06:57:44.944Z,31.3
2018-04-11T06:58:34.725Z,31.4
2018-04-11T06:59:24.511Z,31.6
2018-04-11T07:00:15.110Z,31.8
2018-04-11T07:01:05.226Z,32
2018-04-11T07:01:54.376Z,32.2
2018-04-11T07:02:45.361Z,32.3
2018-04-11T07:03:34.798Z,32.4
2018-04-11T07:04:25.402Z,32.4
2018-04-11T07:05:15.495Z,32.4
2018-04-11T07:06:05.318Z,32.3
2018-04-11T07:06:55.585Z,32.2
2018-04-11T07:07:45.665Z,32.1
2018-04-11T07:08:35.198Z,32.1
2018-04-11T07:09:25.833Z,32.2
2018-04-11T07:10:15.568Z,32.2
2018-04-11T07:11:05.642Z,32.3
2018-04-11T07:11:55.981Z,32.6
2018-04-11T07:12:45.275Z,32.9
2018-04-11T07:13:36.125Z,33.2
2018-04-11T07:14:26.185Z,33.4
2018-04-11T07:15:16.314Z,33.6
2018-04-11T07:16:06.310Z,33.7
2018-04-11T07:16:56.435Z,33.7
2018-04-11T07:17:46.182Z,33.7
2018-04-11T07:18:36.035Z,33.7
2018-04-11T07:19:26.312Z,33.9
2018-04-11T07:20:16.347Z,34.3
2018-04-11T07:21:06.185Z,34.6
2018-04-11T07:21:56.736Z,34.8
2018-04-11T07:22:46.839Z,34.8
2018-04-11T07:23:36.875Z,34.8
2018-04-11T07:24:26.944Z,34.8
2018-04-11T07:25:16.731Z,34.8
2018-04-11T07:26:06.445Z,34.8
2018-04-11T07:26:56.856Z,34.8
2018-04-11T07:27:46.939Z,34.8
2018-04-11T07:28:37.297Z,34.9
2018-04-11T07:29:27.053Z,35.1
2018-04-11T07:30:17.093Z,35.2
2018-04-11T07:31:07.457Z,35.4
2018-04-11T07:31:57.564Z,35.4
2018-04-11T07:32:46.999Z,35.5
2018-04-11T07:33:37.111Z,35.6
2018-04-11T07:34:27.417Z,35.8
2018-04-11T07:35:17.206Z,35.9
2018-04-11T07:36:07.543Z,35.9
2018-04-11T07:36:57.644Z,35.8
2018-04-11T07:37:47.413Z,35.8
2018-04-11T07:38:37.466Z,35.8
2018-04-11T07:39:27.807Z,36
2018-04-11T07:40:17.918Z,36.5
2018-04-11T07:41:08.201Z,37
2018-04-11T07:41:58.000Z,37.4
2018-04-11T07:42:48.046Z,37.8
2018-04-11T07:43:38.087Z,37.9
2018-04-11T07:44:27.894Z,37.9
2018-04-11T07:45:18.225Z,37.9
2018-04-11T07:46:09.352Z,37.9
2018-04-11T07:46:58.072Z,38.1
2018-04-11T07:47:48.687Z,38.5
2018-04-11T07:48:38.765Z,38.8
2018-04-11T07:49:28.819Z,38.9
2018-04-11T07:50:18.340Z,39
2018-04-11T07:51:08.389Z,39.1
2018-04-11T07:51:58.177Z,39.4
2018-04-11T07:52:49.059Z,39.7
2018-04-11T07:53:39.159Z,40.1
2018-04-11T07:54:28.654Z,40.4
2018-04-11T07:55:18.992Z,40.6
2018-04-11T07:56:08.513Z,40.8
2018-04-11T07:56:59.112Z,41
2018-04-11T07:57:49.182Z,41.2
2018-04-11T07:58:39.221Z,41.4
2018-04-11T07:59:29.615Z,41.5
2018-04-11T08:00:19.433Z,41.7
2018-04-11T08:01:08.877Z,41.9
2018-04-11T08:01:59.777Z,42.2
2018-04-11T08:02:49.590Z,42.4
2018-04-11T08:03:39.942Z,42.5
2018-04-11T08:04:29.384Z,42.6
2018-04-11T08:05:19.186Z,42.8
2018-04-11T08:06:10.107Z,42.9
2018-04-11T08:06:59.584Z,43.1
2018-04-11T08:07:50.320Z,43.3
2018-04-11T08:08:39.730Z,43.4
2018-04-11T08:09:30.091Z,43.6
2018-04-11T08:10:19.834Z,43.7
2018-04-11T08:11:10.474Z,43.8
2018-04-11T08:12:00.586Z,43.8
2018-04-11T08:12:50.591Z,43.9
2018-04-11T08:13:40.400Z,44
2018-04-11T08:14:30.221Z,44.1
2018-04-11T08:15:20.646Z,44.2
2018-04-11T08:16:10.870Z,44.4
2018-04-11T08:17:00.696Z,44.6
2018-04-11T08:17:50.721Z,44.7
2018-04-11T08:18:40.547Z,44.8
2018-04-11T08:19:30.828Z,44.9
2018-04-11T08:20:20.891Z,45.1
2018-04-11T08:21:11.027Z,45.4
2018-04-11T08:22:00.253Z,45.7
2018-04-11T08:22:51.096Z,45.9
2018-04-11T08:23:40.913Z,46
2018-04-11T08:24:30.628Z,46.3
2018-04-11T08:25:21.290Z,46.6
2018-04-11T08:26:11.344Z,46.8
2018-04-11T08:27:00.924Z,47
2018-04-11T08:27:51.226Z,47.3
2018-04-11T08:28:41.517Z,47.5
2018-04-11T08:29:31.328Z,47.7
2018-04-11T08:30:21.718Z,47.9
2018-04-11T08:31:11.440Z,48.1
2018-04-11T08:32:01.784Z,48.3
2018-04-11T08:32:52.122Z,48.6
2018-04-11T08:33:41.931Z,48.8
2018-04-11T08:34:30.916Z,48.9
2018-04-11T08:35:21.775Z,49.2
2018-04-11T08:36:12.090Z,49.4
2018-04-11T08:37:02.160Z,49.6
2018-04-11T08:37:52.249Z,49.8
2018-04-11T08:38:41.997Z,50.1
2018-04-11T08:39:32.617Z,50.3
2018-04-11T08:40:22.705Z,50.5
2018-04-11T08:41:12.475Z,50.7
2018-04-11T08:42:02.529Z,50.9
2018-04-11T08:42:52.119Z,51.1
2018-04-11T08:43:42.740Z,51.3
2018-04-11T08:44:32.718Z,51.4
2018-04-11T08:45:22.307Z,51.7
2018-04-11T08:46:12.574Z,51.9
2018-04-11T08:47:02.897Z,52.1
2018-04-11T08:47:53.007Z,52.3
2018-04-11T08:48:43.081Z,52.4
2018-04-11T08:49:33.086Z,52.6
2018-04-11T08:50:23.428Z,52.8
2018-04-11T08:51:12.973Z,53
2018-04-11T08:52:03.040Z,53.2
2018-04-11T08:52:53.614Z,53.3
2018-04-11T08:53:43.408Z,53.4
2018-04-11T08:54:33.518Z,53.6
2018-04-11T08:55:23.556Z,53.7
2018-04-11T08:56:13.060Z,53.8
2018-04-11T08:57:03.666Z,53.9
2018-04-11T08:57:54.000Z,54.1
2018-04-11T08:58:44.078Z,54.3
2018-04-11T08:59:33.618Z,54.4
2018-04-11T09:00:23.936Z,54.5
2018-04-11T09:01:14.045Z,54.6
2018-04-11T09:02:04.105Z,54.8
2018-04-11T09:02:54.146Z,54.9
2018-04-11T09:03:44.197Z,54.9
2018-04-11T09:04:33.966Z,55.1
2018-04-11T09:05:24.595Z,55.3
2018-04-11T09:06:14.400Z,55.5
2018-04-11T09:07:04.734Z,55.8
2018-04-11T09:07:54.504Z,56
2018-04-11T09:08:44.865Z,56.3
2018-04-11T09:09:34.611Z,56.5
2018-04-11T09:10:24.980Z,56.7
2018-04-11T09:11:14.483Z,56.8
2018-04-11T09:12:05.088Z,56.9
2018-04-11T09:12:54.898Z,57.1
2018-04-11T09:13:45.226Z,57.2
2018-04-11T09:14:35.008Z,57.2
2018-04-11T09:15:25.377Z,57.3
2018-04-11T09:16:15.466Z,57.3
2018-04-11T09:17:05.529Z,57.3
2018-04-11T09:17:55.290Z,57.3
2018-04-11T09:18:45.047Z,57.2
2018-04-11T09:19:35.737Z,57.1
2018-04-11T09:20:25.218Z,57.1
2018-04-11T09:21:15.621Z,57.1
2018-04-11T09:22:05.309Z,57.1
2018-04-11T09:22:55.678Z,57
2018-04-11T09:23:45.724Z,57.1
2018-04-11T09:24:35.829Z,57.2
2018-04-11T09:25:25.867Z,57.4
2018-04-11T09:26:16.476Z,57.5
2018-04-11T09:27:06.002Z,57.6
2018-04-11T09:28:45.819Z,57.8
2018-04-11T09:29:36.172Z,57.9
2018-04-11T09:30:26.550Z,57.9
2018-04-11T09:31:16.276Z,58
2018-04-11T09:32:05.796Z,58
2018-04-11T09:32:56.876Z,58.1
2018-04-11T09:33:46.759Z,58.1
2018-04-11T09:34:36.839Z,58.3
2018-04-11T09:35:26.589Z,58.4
2018-04-11T09:36:16.707Z,58.3
2018-04-11T09:37:06.466Z,58.3
2018-04-11T09:37:56.267Z,58.3
2018-04-11T09:38:47.244Z,58.2
2018-04-11T09:39:36.631Z,58.2
2018-04-11T09:40:26.762Z,58.2
2018-04-11T09:41:16.953Z,58.2
2018-04-11T09:42:07.385Z,58.3
2018-04-11T09:42:57.499Z,58.3
2018-04-11T09:43:46.963Z,58.3
2018-04-11T09:44:37.311Z,58.4
2018-04-11T09:45:26.900Z,58.4
2018-04-11T09:46:17.750Z,58.4
2018-04-11T09:47:06.676Z,58.5
2018-04-11T09:48:47.419Z,58.7
2018-04-11T09:49:37.988Z,58.6
2018-04-11T09:50:28.098Z,58.7
2018-04-11T09:51:16.515Z,58.7
2018-04-11T09:52:08.184Z,58.8
2018-04-11T09:52:58.285Z,58.8
2018-04-11T09:53:47.741Z,58.9
2018-04-11T09:54:37.773Z,58.9
2018-04-11T09:55:28.461Z,58.9
2018-04-11T09:56:18.483Z,59.2
2018-04-11T09:57:08.006Z,59.5
2018-04-11T09:57:58.344Z,59.6
2018-04-11T09:58:48.699Z,59.8
2018-04-11T09:59:38.196Z,59.8
2018-04-11T10:00:29.134Z,59.8
2018-04-11T10:01:18.640Z,59.9
2018-04-11T10:02:08.139Z,60
2018-04-11T10:02:58.738Z,60.1
2018-04-11T10:03:48.235Z,60.3
2018-04-11T10:04:38.935Z,60.3
2018-04-11T10:05:28.675Z,60.2
2018-04-11T10:06:19.308Z,60.2
2018-04-11T10:07:09.346Z,60.2
2018-04-11T10:07:59.403Z,60.3
2018-04-11T10:08:49.188Z,60.4
2018-04-11T10:09:38.665Z,60.5
2018-04-11T10:10:28.065Z,60.6
2018-04-11T10:11:19.668Z,60.7
2018-04-11T10:12:08.750Z,60.8
2018-04-11T10:12:58.828Z,60.8
2018-04-11T10:13:48.746Z,60.8
2018-04-11T10:14:39.449Z,60.8
2018-04-11T10:15:29.688Z,60.7
2018-04-11T10:16:20.109Z,60.6
2018-04-11T10:17:09.237Z,60.6
2018-04-11T10:17:59.878Z,60.6
2018-04-11T10:18:49.914Z,60.6
2018-04-11T10:19:40.356Z,60.7
2018-04-11T10:20:29.213Z,60.6
2018-04-11T10:21:19.278Z,60.6
2018-04-11T10:22:09.541Z,60.6
2018-04-11T10:23:00.303Z,60.6
2018-04-11T10:23:50.112Z,60.7
2018-04-11T10:24:39.968Z,60.8
2018-04-11T10:25:30.110Z,60.8
2018-04-11T10:26:20.005Z,60.8
2018-04-11T10:27:10.904Z,60.9
2018-04-11T10:28:00.278Z,60.9
2018-04-11T10:28:50.747Z,60.9
2018-04-11T10:29:41.105Z,60.9
2018-04-11T10:30:31.151Z,61.1
2018-04-11T10:31:20.375Z,61.3
2018-04-11T10:32:10.730Z,61.4
2018-04-11T10:33:01.055Z,61.6
2018-04-11T10:33:51.410Z,61.8
2018-04-11T10:34:40.882Z,61.9
2018-04-11T10:35:31.272Z,62.1
2018-04-11T10:36:21.612Z,62.2
2018-04-11T10:37:11.702Z,62.3
2018-04-11T10:38:01.733Z,62.4
2018-04-11T10:38:51.812Z,62.6
2018-04-11T10:39:41.330Z,62.7
2018-04-11T10:40:31.646Z,62.8
2018-04-11T10:41:20.576Z,62.9
2018-04-11T10:42:12.064Z,63.1
2018-04-11T10:43:01.843Z,63.2
2018-04-11T10:43:51.572Z,63.3
2018-04-11T10:44:41.956Z,63.4
2018-04-11T10:45:32.273Z,63.5
2018-04-11T10:46:21.756Z,63.6
2018-04-11T10:47:11.835Z,63.8
2018-04-11T10:48:02.254Z,63.8
2018-04-11T10:48:52.241Z,63.9
2018-04-11T10:49:41.772Z,64
2018-04-11T10:50:32.414Z,64.1
2018-04-11T10:51:22.730Z,64.2
2018-04-11T10:52:12.234Z,64.3
2018-04-11T10:53:02.042Z,64.4
2018-04-11T10:53:52.126Z,64.4
2018-04-11T10:54:42.999Z,64.4
2018-04-11T10:55:33.089Z,64.6
2018-04-11T10:56:23.128Z,64.7
2018-04-11T10:57:13.167Z,64.8
2018-04-11T10:58:02.709Z,64.9
2018-04-11T10:58:53.346Z,65
2018-04-11T10:59:43.105Z,65.1
2018-04-11T11:00:33.148Z,65.1
2018-04-11T11:01:22.649Z,65.2
2018-04-11T11:02:13.306Z,65.3
2018-04-11T11:03:03.381Z,65.4
2018-04-11T11:03:52.837Z,65.5
2018-04-11T11:04:43.273Z,65.4
2018-04-11T11:05:33.308Z,65.1
2018-04-11T11:06:23.318Z,64.9
2018-04-11T11:07:13.398Z,64.8
2018-04-11T11:08:04.020Z,64.7
2018-04-11T11:08:53.223Z,63.5
2018-04-11T11:09:44.512Z,62.1
2018-04-11T11:10:33.647Z,61.6
2018-04-11T11:11:23.680Z,60.6
2018-04-11T11:12:13.498Z,59.5
2018-04-11T11:13:04.192Z,58.9